Benton, KY (42025)

9:36 AM CDT on August 30, 2015 (GMT -0500)
Jason's House | | Change Station
CLOSE
Current Station
Personal Weather Station
Location: Benton, KY
Elevation: 456 ft
Nearby Weather Stations

Elev 456 ft 36.85 °N, 88.35 °W | Updated 4 seconds ago

Partly Cloudy
Partly Cloudy
75.4 °F
Feels Like 75 °F
N
0.0
Wind Variable Wind from South
Gusts 5.0 mph

Today
High -- | Low -- °F
--% Chance of Precip.
Yesterday
High -- | Low -- °F
Precip. -- in
6:22 AM 7:24 PM
Full, 99% visible
Pressure 30.10 in
Visibility 10.0 miles
Clouds Scattered Clouds 8000 ft
Scattered Clouds 9000 ft
Heat Index 75 °F
Dew Point 71 °F
Humidity 87%
Rainfall 0.03 in
Snow Depth Not available.
UV 3 out of 12
Pollen 10.10 out of 12
Air Quality Not available.
Flu Activity Not available.
METAR KCEY 301415Z AUTO 20007G14KT 140V220 10SM SCT080 SCT090 23/21 A3010 RMK AO1
Pressure 30.10 in
Visibility 10.0 miles
Clouds Scattered Clouds 8000 ft
Scattered Clouds 9000 ft
Heat Index 75 °F
Dew Point 71 °F
Humidity 87%
Rainfall 0.03 in
Snow Depth Not available.
UV 3 out of 12
Pollen 10.10 out of 12
Air Quality Not available.
Flu Activity Not available.
METAR KCEY 301415Z AUTO 20007G14KT 140V220 10SM SCT080 SCT090 23/21 A3010 RMK AO1

10-Day Weather Forecast

×

Almanac

Astronomy

Aug. 30, 2015 Rise Set
Actual Time
Civil Twilight
Nautical Twilight
Astronomical Twilight
Moon
Length of Visible Light
Length of Day
Tomorrow will be .
, % of the Moon is Illuminated

Today's Extremes

State Highs State Lows

Community

WunderPhotos

Upload Photos

1,850,974 photos uploaded!

WunderBlogs® & News

Nearby

Air Quality

  Air Quality AQ Index Pollutant
Not available.

Snow Depth

Station Depth Elevation

Earthquake Activity

City Distance Mag. Time & Date
Minimum magnitude displayed is 2.5.

Coastal Water Temperatures

Place Temperature

Stations

Nearby Weather Stations

Station Location Temp. Windchill Dew Point Humidity Wind Precip. Elev Updated Type